ADDS METAR Data INFO
IDs: Format: Raw Decoded Include TAF

Data at: 0715 UTC 19 Oct 2017

PAPG 190656Z AUTO 25003KT 10SM -RA OVC037 04/04 A2889 RMK AO2 RAB14 SLP787 P0001 T00440039
PAPG 190556Z 00000KT 10SM SCT060 BKN100 04/03 A2890 RMK AO2 SLP788 60000 T00390028 10072 20039 58012
PAPG 190456Z VRB04KT 10SM FEW046 04/03 A2891 RMK AO2 SLP793 T00440028
PAPG 190356Z 00000KT 10SM FEW060 BKN080 OVC090 06/03 A2892 RMK AO2 RAE05 SLP796 P0000 T00610028
PAPG 190256Z VRB03KT 10SM -RA BKN050 OVC060 07/03 A2893 RMK AO2 RAB27 SLP800 P0000 60000 T00670028 56008
PAPG 190156Z 00000KT 10SM SCT031 BKN060 06/03 A2893 RMK AO2 SLP800 T00560033
PAPG 190056Z 21003KT 10SM SCT027 BKN060 07/04 A2894 RMK AO2 SLP804 T00670039
PAPG 190013Z 16003KT 10SM FEW018 SCT027 BKN070 07/03 A2896 RMK AO2
PAPG 190003Z 09003KT 10SM BKN024 OVC060 07/03 A2895 RMK AO2
PAPG 182356Z 17003KT 10SM FEW018 SCT027 BKN070 07/03 A2896 RMK AO2 RAE10 SLP809 P0000 60005 T00670033 10078 20056 58015
PAPG 182256Z 06007KT 10SM -RA BKN025 BKN044 OVC055 06/03 A2898 RMK AO2 SLP816 P0000 T00610033
PAPG 182156Z 15007KT 130V190 10SM -RA OVC049 07/03 A2899 RMK AO2 RAE08B35 SLP819 P0000 T00720028
PAPG 182103Z 13004KT 10SM -RA SCT029 BKN038 OVC060 07/04 A2900 RMK AO2 P0000
PAPG 182056Z VRB06KT 10SM -RA FEW017 BKN029 OVC060 07/03 A2900 RMK AO2 SLP823 P0000 60005 T00720033 58011
PAPG 182012Z 14008KT 090V170 10SM SCT028 BKN060 07/03 A2901 RMK AO2 RAE07 P0000
PAPG 181956Z 15010KT 10SM -RA FEW017 BKN029 OVC036 06/03 A2902 RMK AO2 SLP830 OCNL BKS IN OVC P0003 T00610033
PAPG 181929Z 10007KT 10SM -RA BKN030 OVC036 06/04 A2902 RMK AO2 P0003
PAPG 181856Z 10008KT 9SM -RA BKN028 BKN049 OVC070 06/03 A2903 RMK AO2 RAB03 SLP835 P0002 T00610033
PAPG 181756Z VRB06KT 10SM FEW033 BKN044 OVC060 07/02 A2902 RMK AO2 RAE32 SLP832 P0000 60014 T00720022 10072 20061 56000
PAPG 181656Z 13011G20KT 10SM -RA BKN037 OVC043 07/02 A2903 RMK AO2 SLP833 P0000 T00720017
PAPG 181556Z 14013G23KT 10SM -RA FEW039 SCT047 OVC055 07/02 A2901 RMK AO2 PK WND 13026/1506 RAB00 SLP827 P0000 T00720017
PAPG 181456Z 15011G25KT 10SM SCT036 BKN042 07/02 A2903 RMK AO2 RAE52 SLP832 P0000 60014 T00720017 56041
PAPG 181356Z AUTO 14010G15KT 10SM -RA FEW030 OVC037 07/03 A2906 RMK AO2 SLP844 P0003 T00670028
PAPG 181310Z AUTO 12010G20KT 090V160 10SM -RA OVC031 06/03 A2909 RMK AO2 P0001
PAPG 181256Z AUTO 11014G20KT 9SM -RA BKN027 OVC032 06/03 A2910 RMK AO2 SLP855 P0011 T00610028
PAPG 181211Z AUTO 11009G19KT 080V140 8SM -RA OVC029 06/03 A2914 RMK AO2 P0004
PAPG 181156Z AUTO 09009KT 8SM -RA OVC031 07/02 A2915 RMK AO2 SLP873 P0004 60005 70007 T00670022 10078 20061 56077
PAPG 181056Z AUTO 14010G21KT 10SM -RA OVC035 07/02 A2920 RMK AO2 PK WND 12027/1044 PRESFR SLP893 P0001 T00720017
PAPG 180956Z AUTO 13010G14KT 10SM -RA OVC044 08/01 A2929 RMK AO2 PRESFR SLP921 P0000 T00780011
PAPG 180856Z AUTO 13014G24KT 10SM -RA FEW036 OVC045 08/01 A2937 RMK AO2 SLP951 P0000 60000 T00780011 400780033 58057
PAPG 180756Z AUTO 13013G17KT 10SM -RA FEW042 07/01 A2943 RMK AO2 RAB0659E09B43 SLP970 P0000 T00720011
PAPG 180656Z AUTO 12008KT 10SM FEW024 SCT033 BKN045 07/02 A2949 RMK AO2 RAE25 SLP990 P0000 T00670017
PAPG 180556Z 13013KT 10SM -RA FEW070 06/02 A2954 RMK AO2 RAB50 SLP008 P0000 60000 T00610022 10067 20050 58039
PAPG 180456Z VRB05KT 10SM FEW039 OVC065 07/02 A2958 RMK AO2 RAB05E20 PRESFR SLP021 P0000 T00670022
PAPG 180411Z 12006KT 10SM -RA FEW023 SCT029 BKN048 06/03 A2962 RMK AO2 RAB05 P0000
PAPG 180356Z 12007KT 10SM BKN025 06/03 A2963 RMK AO2 SLP037 T00610028
PAPG 180256Z 12006KT 10SM BKN021 BKN028 OVC043 06/03 A2966 RMK AO2 SLP047 60000 T00560033 58022
PAPG 180225Z 12003KT 10SM SCT023 BKN028 OVC041 05/03 A2967 RMK AO2
PAPG 180156Z 00000KT 10SM FEW021 SCT030 BKN035 05/04 A2968 RMK AO2 RAE38 SLP054 P0000 T00500039
PAPG 180121Z 00000KT 10SM -RA FEW019 BKN027 OVC036 05/04 A2970 RMK AO2 P0000
PAPG 180056Z 00000KT 10SM -RA FEW016 SCT027 BKN040 06/04 A2971 RMK AO2 RAB20 SLP063 P0000 T00560044
PAPG 172356Z 00000KT 10SM FEW018 SCT027 BKN046 06/04 A2972 RMK AO2 SLP069 60002 T00560039 10072 20050 58002
PAPG 172256Z VRB03KT 10SM FEW014 SCT026 BKN070 07/03 A2973 RMK AO2 RAE12 SLP072 P0000 T00670028
PAPG 172247Z VRB03KT 10SM FEW009 SCT021 BKN046 06/03 A2973 RMK AO2 RAE12 P0000
PAPG 172156Z 25006KT 10SM -RA BCFG FEW021 SCT035 OVC046 07/04 A2973 RMK AO2 RAB06 SLP072 P0002 T00670039
PAPG 172144Z VRB04KT 8SM -RA BCFG SCT019 BKN035 OVC046 06/04 A2973 RMK AO2 RAB06 P0001
PAPG 172128Z 00000KT 10SM -RA BCFG SCT019 BKN026 OVC060 06/04 A2973 RMK AO2 RAB06 P0001
PAPG 172120Z VRB03KT 10SM -RA BCFG SCT025 BKN041 OVC060 07/04 A2973 RMK AO2 RAB06 P0001
PAPG 172106Z 15007KT 9SM -RA BCFG SCT023 BKN029 OVC043 07/04 A2973 RMK AO2 RAB06 P0000
PAPG 172056Z 09005KT 10SM BCFG FEW009 SCT031 BKN043 07/05 A2973 RMK AO2 SLP070 60000 T00670050 51006
PAPG 172047Z 10006KT 10SM BCFG FEW008 SCT022 BKN046 07/05 A2973 RMK AO2
PAPG 172037Z 00000KT 10SM BCFG FEW008 BKN018 07/05 A2973 RMK AO2
PAPG 172029Z 07004KT 10SM BCFG SCT012 BKN018 07/04 A2973 RMK AO2
PAPG 171956Z 00000KT 10SM BCFG BKN010 OVC017 06/04 A2973 RMK AO2 CIG 008V012 SLP070 T00610039
PAPG 171939Z 08003KT 10SM BCFG BKN008 BKN020 OVC035 06/05 A2973 RMK AO2